Red Alert 2 - Ladder - jinx45

Game Account | Forums | Support | Downloads
Tiberian Sun | Red Alert 2 | Yuri's Revenge | Renegade


#184 28 / 55 177p
1 disconnects
1 reconnection errors
53 FPS
11.1 hours

87xIraq

5xSnow Valley
4xCity Under Siege
4xCold War
4xMorningtide
4xOfficial Tournament Map B
3xCountry Swing
3xDivide and Conquer
3xHeck Freezes Over R v R
3xMontana DMZ
3xPinch Point
3xSouth Pacific
3xStormy Weather
3xThe Alamo
3xThin Ice
3xValley of Gems
2xArctic Circle
2xCaverns of Siberia
2xGolden State Fwy
2xJungle of Vietnam
2xMay Day
2xParis Revisited
2xSavage Winter
2xTikal
2xTwin Peaks
2xUrban Rush
2xYellowstone
1xAmazonas Delta
1xDEFCON 6
1xDepth Charge
1xDry Heat
1xEventide
1xHammer and Sickle
1xIsle of War
1xLittle Piece of Island
1xOfficial Tournament Map A
1xPoltergeist
1xRiver Rampage
1xRoundhouse Kick
1xThe Hills Have Eyes
1xTour of Egypt
GIDPlayer APlayer BDurationScenarioDateFPSCST
22132Iraqjinx45L-18IraqggsmateW+1805:17Morningtide01:12 28-07-201451P
22098Iraqjinx45WAmericaclausoehL33:25Snow Valley00:23 28-07-201454P
22074Iraqjinx45W+27AmericaclausoehL-1104:12Dry Heat23:48 27-07-201455P
22069Iraqjinx45W+31AmericaclausoehL-1305:15Little Piece of Island23:42 27-07-201455P
22058Iraqjinx45L-15KoreacolguileW+2109:14Country Swing23:27 27-07-201457P
22052Iraqjinx45L-16CubacolguileW+2510:12Cold War23:18 27-07-201455P
21985Iraqjinx45W+30AmericaclausoehL-1107:50Eventide21:46 27-07-201454P
21951Iraqjinx45W+22Francerondog231L08:16Montana DMZ21:07 27-07-201454P
21907Iraqjinx45L-12IraqjohndoeW+2910:43Thin Ice20:29 27-07-201455P
21885Iraqjinx45L-14Americastrat1gstW+2904:29May Day20:07 27-07-201454P
21870Iraqjinx45L-15IraqzerosevenW+4004:43Amazonas Delta19:57 27-07-201455P
21863Iraqjinx45W+26Americabohlen0L-603:35The Alamo19:51 27-07-201455P
21852Iraqjinx45L-14Iraqhelp1timeW+2615:41Stormy Weather19:41 27-07-201453P
21816Iraqjinx45L-16Iraqabn0rmaalW+3205:34Roundhouse Kick19:09 27-07-201453P
21767Iraqjinx45W+45Libyaangryn00bL-2613:46Depth Charge18:24 27-07-201454P
21751Iraqjinx45L-12Germanyangryn00bW+2203:04Urban Rush18:09 27-07-201458P
21739Iraqjinx45L-14Iraqhelp1timeW+2809:54Jungle of Vietnam17:56 27-07-201456P
21177Iraqjinx45L-15AmericajacksonaaW+3510:21Cold War00:36 27-07-201455P
21168Iraqjinx45L-17AmericajacksonaaW+3807:56City Under Siege00:20 27-07-201454P
21162Iraqjinx45L-19AmericajacksonaaW+4408:41South Pacific00:12 27-07-201456P
21150Iraqjinx45L-20Iraqtti570W+2009:21South Pacific00:00 27-07-201453P
21122Iraqjinx45WAmericaclausoehL44Paris Revisited23:13 26-07-201454P
21119Iraqjinx45W+28AmericaclausoehL-1409:15Cold War23:11 26-07-201456P
21111Iraqjinx45L-19Americamagikarp4W+1904:59Pinch Point23:02 26-07-201455P
21105Iraqjinx45W+31AmericaclausoehL-1606:47Heck Freezes Over R v R22:56 26-07-201456P
21092Iraqjinx45L-19Americamagikarp4W+2004:19Cold War22:40 26-07-201449P
21086Iraqjinx45L-21Americamagikarp4W+2304:34Heck Freezes Over R v R22:35 26-07-201454P
21067Iraqjinx45W+29AmericaclausoehL-1409:25Jungle of Vietnam22:09 26-07-201454P
21059Iraqjinx45W+27FranceterplotsL-917:41Stormy Weather21:58 26-07-201455P
21044Iraqjinx45L-17Americasupper7W+1905:11Morningtide21:39 26-07-201451P
21037Iraqjinx45L-19Americasupper7W+2305:06Pinch Point21:31 26-07-201452P
21033Iraqjinx45WAmericap3achyW20:27The Hills Have Eyes21:26 26-07-201456SP
21005Iraqjinx45L-21IraqpizzaguruW+2505:13Savage Winter21:00 26-07-201458P
20996Iraqjinx45W+25AmericabigbogieL-1008:37Snow Valley20:53 26-07-201455P
20978Iraqjinx45L-20IraqpizzaguruW+2303:48Montana DMZ20:29 26-07-201457P
20973Iraqjinx45L-23AmericaifvbangW+2911:12Snow Valley20:23 26-07-201457P
20965Iraqjinx45W+23Americabohlen0L-1101:07City Under Siege20:11 26-07-201452P
20476Iraqjinx45W+19AmericaflaktroopL-414:55Thin Ice02:02 26-07-201454P
20469Iraqjinx45W+21AmericaflaktroopL-414:45Caverns of Siberia01:47 26-07-201454P
20455Iraqjinx45W+24IraqflaktroopL-506:26River Rampage01:29 26-07-201454P
19537Iraqjinx45L-16IraqjohndoeW+2409:14Yellowstone21:29 24-07-201455P
19531Iraqjinx45L-17IraqjohndoeW+2806:36Morningtide21:20 24-07-201453P
19509Iraqjinx45DCAmericabohlen0DC04:09Official Tournament Map A20:56 24-07-201426P
19459Iraqjinx45W+21Americabohlen0L-317:42Paris Revisited20:08 24-07-201455P
19434Iraqjinx45W+23Americabohlen0L-304:12Golden State Fwy19:51 24-07-201453P
19422Iraqjinx45W+26Americabohlen0L-305:09Official Tournament Map B19:41 24-07-201454P
19415Iraqjinx45L-11Americalukke2003W+2109:23Official Tournament Map B19:34 24-07-201457P
19406Iraqjinx45L-13Americalukke2003W+2410:10Divide and Conquer19:25 24-07-201456P
13555Iraqjinx45L-14IraqpiayhardW+2013Montana DMZ02:45 17-07-201445P
13554Iraqjinx45L-16IraqpiayhardW+2302:19DEFCON 602:44 17-07-201458P
13552Iraqjinx45L-18IraqpiayhardW+2703:49The Alamo02:41 17-07-201458P
13531Iraqjinx45W+29Iraqmk6550L-1210:15Country Swing01:58 17-07-201458P
13528Iraqjinx45W+34Iraqmk6550L-1305:50Stormy Weather01:47 17-07-201456P
13524Iraqjinx45L-13Iraqmk6550W+3508:46Official Tournament Map B01:41 17-07-201457P
2468Iraqjinx45W+22Americaircs7L08:38Hammer and Sickle00:04 04-07-201447P
2463Iraqjinx45W+26AmericaclausoehL-112Golden State Fwy23:52 03-07-201447P
2461Iraqjinx45W+28AmericaclausoehL-112:35Poltergeist23:51 03-07-201455P
2453Iraqjinx45W+31AmericaclausoehL-125:07Arctic Circle23:38 03-07-201454P
2441Iraqjinx45L-2IraqtempzW+2006:47Savage Winter23:11 03-07-201457P
2437Iraqjinx45L-2IraqtempzW+2206:10Valley of Gems23:04 03-07-201453P
2433Iraqjinx45L-3IraqzigzagW+2404:35Morningtide22:57 03-07-201456P
2431Iraqjinx45L-3IraqzigzagW+2607:30Tikal22:52 03-07-201456P
2430Iraqjinx45L-3Great Britainiamj0hnW+3509:32Yellowstone22:44 03-07-201455P
2423Iraqjinx45L-3AmericaghghghghW+2505:14Snow Valley22:30 03-07-201456P
2420Iraqjinx45L-4AmericaghghghghW+2703:14Isle of War22:24 03-07-201454P
2410Iraqjinx45L-4AmericaghghghghW+2903:47Valley of Gems22:14 03-07-201456P
2407Iraqjinx45L-5IraqzigzagW+3409:41City Under Siege22:10 03-07-201455P
1500Iraqjinx45L-5IraqxhckidxW+3403:54Heck Freezes Over R v R19:35 02-07-201456P
1497Iraqjinx45L-6IraqxhckidxW+3803:37Twin Peaks19:30 02-07-201457P
1491Iraqjinx45L-6Americasf848W+3811:32South Pacific19:26 02-07-201455P
1482Iraqjinx45W+28Americasf848L12:41Thin Ice19:14 02-07-201452P
1468Iraqjinx45L-4Libyaangel0fdeW+3601:21Official Tournament Map B19:02 02-07-201457P
1464Iraqjinx45L-5IraqromelW+3104:27Urban Rush18:56 02-07-201457P
1441Iraqjinx45L-5IraqmtalW+2804:23City Under Siege18:31 02-07-201447P
1437Iraqjinx45L-6IraqmtalW+3102:09Arctic Circle18:26 02-07-201453P
1375Iraqjinx45L-6IraqcentW+2506:43Valley of Gems17:25 02-07-201454P
1368Iraqjinx45W+28Germanyk1ngtwoL06:51Country Swing17:15 02-07-201455P
1363Iraqjinx45L-4IraqcentW+2505:05Caverns of Siberia17:07 02-07-201453P
1340Iraqjinx45L-4AmericasevenstarW+2105:02Snow Valley16:33 02-07-201454P
1306Iraqjinx45L-5IraqchilloutW+3711:47Pinch Point15:43 02-07-201454P
1302Iraqjinx45L-5Iraqtti570W+2703:32May Day15:31 02-07-201457P
1301Iraqjinx45W+30IraqftroopL07:32Tikal15:24 02-07-201453P
1287Iraqjinx45L-3IraqgracefullW+2303:27Twin Peaks14:52 02-07-201456P
1010Iraqjinx45L-3Iraqag207W+3507:50Divide and Conquer04:12 02-07-201452P
1003Iraqjinx45L-3KoreapoppyseedW+3506:04Tour of Egypt04:04 02-07-201457P
997Iraqjinx45W+36IraqblaculaL-407:29Divide and Conquer03:56 02-07-201457P
992Iraqjinx45LIraqwgs5W+2703:00The Alamo03:44 02-07-201455P


Hint: Gems are twice as valuable as ore.